Time;durP1;ratioP1;P1;durP2;ratioP2;P2;SDS_P1;SDS_P2;PMS_P1;PMS_P2;Temp;Humidity;BMP_temperature;BMP_pressure;BME280_temperature;BME280_humidity;BME280_pressure;Samples;Min_cycle;Max_cycle;Signal;HPM_P1;HPM_P2
2023/02/15 09:43:42;;;;;;;;;;;;;;;3.56;66.02;99452.88;5966808;23;19953;-57
2023/02/15 09:46:15;;;;;;;;;;;;;;;3.59;65.21;99458.91;4963732;28;20012;-60
2023/02/15 09:48:41;;;;;;;;;;;;;;;3.58;65.39;99455.47;4967333;28;19918;-60
2023/02/15 09:51:14;;;;;;;;;;;;;;;3.63;66.30;99457.97;4965950;28;20502;-60
2023/02/15 09:53:55;;;;;;;;;;;;;;;3.68;65.71;99462.19;4965973;28;19918;-59
2023/02/15 09:56:37;;;;;;;;;;;;;;;3.70;65.26;99462.97;4950360;29;19922;-60
2023/02/15 09:59:05;;;;;;;;;;;;;;;3.77;65.47;99466.31;4951807;29;19997;-60
2023/02/15 10:01:48;;;;;;;;;;;;;;;3.79;65.33;99465.41;4951971;28;19918;-60
2023/02/15 10:04:14;;;;;;;;;;;;;;;3.85;64.66;99469.59;4952435;28;19919;-61
2023/02/15 10:06:42;;;;;;;;;;;;;;;3.88;64.10;99464.31;4944668;28;20339;-60
2023/02/15 10:09:07;;;;;;;;;;;;;;;3.91;64.73;99458.22;4951069;28;20035;-60
2023/02/15 10:11:41;;;;;;;;;;;;;;;3.94;64.64;99465.94;4953405;28;20013;-60
2023/02/15 10:14:15;;;;;;;;;;;;;;;3.97;64.56;99458.09;4950912;28;20009;-60
2023/02/15 10:16:49;;;;;;;;;;;;;;;4.10;64.52;99458.69;4950270;28;20005;-60
2023/02/15 10:19:14;;;;;;;;;;;;;;;4.19;64.07;99453.28;4949014;28;20293;-60
2023/02/15 10:21:52;;;;;;;;;;;;;;;4.29;64.37;99441.78;4953966;29;19918;-61
2023/02/15 10:24:17;;;;;;;;;;;;;;;4.40;63.85;99439.78;4954739;28;19973;-60
2023/02/15 10:26:43;;;;;;;;;;;;;;;4.49;63.40;99439.56;4954414;28;19919;-61
2023/02/15 10:29:09;;;;;;;;;;;;;;;4.51;62.83;99432.59;4950376;29;20211;-61
2023/02/15 10:31:37;;;;;;;;;;;;;;;4.60;62.68;99433.25;4954694;29;19981;-61
2023/02/15 10:34:08;;;;;;;;;;;;;;;4.64;62.57;99424.47;4954294;28;20295;-62
2023/02/15 10:36:33;;;;;;;;;;;;;;;4.72;61.98;99422.56;4954867;29;19918;-60
2023/02/15 10:39:25;;;;;;;;;;;;;;;4.80;62.11;99415.41;4953064;29;19926;-60
2023/02/15 10:41:55;;;;;;;;;;;;;;;4.90;61.57;99410.84;4952025;29;19925;-63
2023/02/15 10:44:24;;;;;;;;;;;;;;;4.98;61.28;99409.72;4948051;28;19918;-62
2023/02/15 10:46:49;;;;;;;;;;;;;;;5.07;61.25;99402.59;4955081;28;20401;-62
2023/02/15 10:49:21;;;;;;;;;;;;;;;5.14;60.96;99399.78;4947700;28;19919;-62
2023/02/15 10:51:52;;;;;;;;;;;;;;;5.23;61.07;99388.28;4950925;29;20302;-60
2023/02/15 10:54:36;;;;;;;;;;;;;;;5.30;59.76;99387.19;4953598;29;19929;-61
2023/02/15 10:57:01;;;;;;;;;;;;;;;5.43;60.37;99390.28;4946843;29;20293;-60
2023/02/15 10:59:36;;;;;;;;;;;;;;;5.48;60.03;99384.06;4952755;28;19918;-60
2023/02/15 11:02:22;;;;;;;;;;;;;;;5.48;59.83;99384.06;4953175;29;19922;-61
2023/02/15 11:05:08;;;;;;;;;;;;;;;5.55;59.82;99379.53;4951473;29;19937;-60
2023/02/15 11:07:34;;;;;;;;;;;;;;;5.58;59.90;99379.44;4951719;29;19918;-61
2023/02/15 11:10:18;;;;;;;;;;;;;;;5.58;59.83;99378.59;4949904;29;19923;-60
2023/02/15 11:12:43;;;;;;;;;;;;;;;5.60;59.61;99380.22;4953989;29;19918;-59
2023/02/15 11:15:29;;;;;;;;;;;;;;;5.66;59.91;99376.59;4952935;29;20005;-60
2023/02/15 11:18:02;;;;;;;;;;;;;;;5.78;59.65;99377.97;4952242;28;19914;-60
2023/02/15 11:20:29;;;;;;;;;;;;;;;5.50;58.52;99375.34;4952597;28;19965;-60
2023/02/15 11:22:54;;;;;;;;;;;;;;;5.47;60.29;99374.56;4952784;29;19919;-60
2023/02/15 11:25:30;;;;;;;;;;;;;;;5.48;59.60;99373.66;4953620;29;20013;-60
2023/02/15 11:27:55;;;;;;;;;;;;;;;5.46;59.54;99375.44;4950052;29;19922;-60
2023/02/15 11:30:21;;;;;;;;;;;;;;;5.43;59.80;99375.50;4952348;29;20331;-61
2023/02/15 11:32:46;;;;;;;;;;;;;;;5.54;60.29;99366.53;4952336;28;19996;-60
2023/02/15 11:35:12;;;;;;;;;;;;;;;5.65;60.45;99359.28;4950847;29;19922;-60
2023/02/15 11:37:39;;;;;;;;;;;;;;;5.46;59.96;99357.22;4950549;29;19942;-60
2023/02/15 11:40:12;;;;;;;;;;;;;;;5.58;60.47;99357.78;4959426;28;19923;-60
2023/02/15 11:42:37;;;;;;;;;;;;;;;5.64;60.51;99352.34;4944218;29;19980;-56
2023/02/15 11:45:35;;;;;;;;;;;;;;;5.70;60.06;99350.41;4943375;28;19953;-60
2023/02/15 11:48:00;;;;;;;;;;;;;;;5.75;59.55;99355.50;4913520;29;19963;-60
2023/02/15 11:50:26;;;;;;;;;;;;;;;5.86;59.62;99347.38;4906250;29;19970;-59
2023/02/15 11:52:51;;;;;;;;;;;;;;;5.98;60.22;99343.53;4915255;29;19919;-60
2023/02/15 11:55:20;;;;;;;;;;;;;;;6.09;60.09;99344.91;4894638;29;19927;-61
2023/02/15 11:57:48;;;;;;;;;;;;;;;6.20;59.64;99343.72;4914783;29;20017;-61
2023/02/15 12:00:20;;;;;;;;;;;;;;;6.25;58.75;99340.03;4897230;29;19919;-61
2023/02/15 12:02:46;;;;;;;;;;;;;;;6.38;58.44;99336.13;4916500;29;19978;-61
2023/02/15 12:05:13;;;;;;;;;;;;;;;6.48;59.06;99341.03;4901290;29;20291;-61
2023/02/15 12:07:43;;;;;;;;;;;;;;;6.50;58.13;99331.41;4898216;29;20687;-60
2023/02/15 12:10:20;;;;;;;;;;;;;;;6.61;58.36;99329.31;4899746;29;19926;-60
2023/02/15 12:12:45;;;;;;;;;;;;;;;6.76;58.37;99320.94;4912440;29;20028;-61
2023/02/15 12:15:11;;;;;;;;;;;;;;;6.87;58.12;99316.19;4915040;29;19923;-61
2023/02/15 12:17:39;;;;;;;;;;;;;;;7.07;59.38;99307.63;4906021;29;19931;-61
2023/02/15 12:20:20;;;;;;;;;;;;;;;7.34;58.30;99303.16;4910962;29;20406;-61
2023/02/15 12:22:46;;;;;;;;;;;;;;;7.53;57.17;99297.22;4908873;29;19919;-62
2023/02/15 12:25:30;;;;;;;;;;;;;;;7.68;56.07;99290.56;4955374;29;20005;-60
2023/02/15 12:27:56;;;;;;;;;;;;;;;7.93;55.52;99290.44;4956843;29;19914;-61
2023/02/15 12:30:31;;;;;;;;;;;;;;;8.11;54.58;99289.66;4954368;29;19919;-60
2023/02/15 12:32:57;;;;;;;;;;;;;;;8.34;54.24;99280.88;4951959;29;19950;-60
2023/02/15 12:35:28;;;;;;;;;;;;;;;8.56;53.98;99283.44;4955525;29;19988;-62
2023/02/15 12:37:55;;;;;;;;;;;;;;;8.66;53.06;99287.34;4956682;29;20349;-62
2023/02/15 12:40:29;;;;;;;;;;;;;;;8.52;52.72;99287.09;4957046;29;20393;-62
2023/02/15 12:42:55;;;;;;;;;;;;;;;8.74;52.18;99292.25;4949035;29;19926;-60
2023/02/15 12:45:21;;;;;;;;;;;;;;;9.20;51.52;99285.81;4955364;29;19925;-60
2023/02/15 12:47:47;;;;;;;;;;;;;;;9.54;50.13;99281.63;4956353;29;19918;-59
2023/02/15 12:50:16;;;;;;;;;;;;;;;10.10;49.02;99272.78;4955041;29;20021;-59
2023/02/15 12:52:48;;;;;;;;;;;;;;;10.41;48.83;99268.66;4950348;29;19919;-60
2023/02/15 12:55:24;;;;;;;;;;;;;;;10.61;47.72;99265.88;4952000;29;20017;-59
2023/02/15 12:57:50;;;;;;;;;;;;;;;11.01;46.94;99258.53;4956789;28;20295;-60
2023/02/15 13:00:18;;;;;;;;;;;;;;;11.30;45.53;99258.72;4955424;29;20025;-60
2023/02/15 13:02:47;;;;;;;;;;;;;;;11.58;45.93;99248.38;4955922;28;19926;-60
2023/02/15 13:05:20;;;;;;;;;;;;;;;11.60;45.00;99257.03;4953900;29;19944;-59
2023/02/15 13:07:46;;;;;;;;;;;;;;;11.28;45.02;99256.16;4956098;29;19918;-59
2023/02/15 13:10:37;;;;;;;;;;;;;;;11.39;44.80;99252.97;4954812;29;20378;-59
2023/02/15 13:13:09;;;;;;;;;;;;;;;11.96;44.42;99248.00;4939209;29;20009;-60
2023/02/15 13:15:38;;;;;;;;;;;;;;;12.43;44.51;99227.75;4950169;29;19922;-65
2023/02/15 13:18:04;;;;;;;;;;;;;;;12.77;43.19;99235.28;4954267;29;19938;-64
2023/02/15 13:20:29;;;;;;;;;;;;;;;13.15;52.33;99236.50;4954661;29;20378;-63
2023/02/15 13:22:59;;;;;;;;;;;;;;;16.41;47.20;99227.06;4955839;28;19942;-63
2023/02/15 13:25:25;;;;;;;;;;;;;;;17.26;39.14;99227.50;4944310;29;19919;-65
2023/02/15 13:27:51;;;;;;;;;;;;;;;16.57;36.09;99218.78;4954590;29;19915;-64
2023/02/15 13:30:18;;;;;;;;;;;;;;;15.61;36.63;99217.13;4948133;29;19954;-65
2023/02/15 13:32:43;;;;;;;;;;;;;;;15.63;37.33;99220.50;4955869;29;20022;-64
2023/02/15 13:35:15;;;;;;;;;;;;;;;15.55;36.34;99220.22;4948481;29;20030;-64
2023/02/15 13:37:40;;;;;;;;;;;;;;;15.70;36.65;99218.28;4944673;29;19928;-64
2023/02/15 13:40:14;;;;;;;;;;;;;;;15.75;36.06;99218.78;4953112;28;20021;-64
2023/02/15 13:42:51;;;;;;;;;;;;;;;15.18;37.02;99222.03;4943387;29;20401;-64
2023/02/15 13:45:20;;;;;;;;;;;;;;;15.63;37.37;99222.31;4954506;28;19926;-64
2023/02/15 13:47:47;;;;;;;;;;;;;;;15.73;36.92;99223.38;4952108;29;19923;-64
2023/02/15 13:50:21;;;;;;;;;;;;;;;15.51;36.56;99217.91;4952016;29;19926;-67
2023/02/15 13:53:05;;;;;;;;;;;;;;;15.34;37.29;99225.25;4954104;29;19960;-66
2023/02/15 13:55:33;;;;;;;;;;;;;;;15.11;36.79;99218.16;4950993;29;19923;-64
2023/02/15 13:58:04;;;;;;;;;;;;;;;15.35;37.16;99224.31;4945122;29;19965;-64
2023/02/15 14:00:29;;;;;;;;;;;;;;;15.15;37.06;99219.63;4948616;29;19919;-65
2023/02/15 14:02:54;;;;;;;;;;;;;;;15.33;37.74;99225.38;4949414;29;20282;-64
2023/02/15 14:05:28;;;;;;;;;;;;;;;15.46;37.34;99223.53;4953356;29;19918;-64
2023/02/15 14:07:56;;;;;;;;;;;;;;;15.76;37.46;99215.19;4959603;28;19926;-64
2023/02/15 14:10:41;;;;;;;;;;;;;;;15.47;36.34;99221.75;4946644;28;19922;-64
2023/02/15 14:13:06;;;;;;;;;;;;;;;15.29;37.80;99222.13;4947240;29;19918;-64
2023/02/15 14:15:40;;;;;;;;;;;;;;;15.50;37.60;99214.44;4952812;29;19926;-64
2023/02/15 14:18:17;;;;;;;;;;;;;;;15.54;36.64;99213.25;4952350;29;19944;-63
2023/02/15 14:20:46;;;;;;;;;;;;;;;15.60;37.15;99204.03;4952015;29;19918;-64
2023/02/15 14:23:14;;;;;;;;;;;;;;;15.77;37.24;99203.66;4954999;29;20006;-64
2023/02/15 14:25:39;;;;;;;;;;;;;;;15.54;37.30;99207.94;4953492;29;19922;-64
2023/02/15 14:28:04;;;;;;;;;;;;;;;15.70;37.71;99205.06;4954796;29;20294;-64
2023/02/15 14:30:33;;;;;;;;;;;;;;;15.88;37.16;99197.56;4952051;29;20012;-66
2023/02/15 14:33:11;;;;;;;;;;;;;;;15.84;36.20;99210.19;4953260;29;19914;-65
2023/02/15 14:35:37;;;;;;;;;;;;;;;15.78;35.95;99207.97;4953549;29;19922;-65
2023/02/15 14:38:17;;;;;;;;;;;;;;;15.84;37.42;99199.59;4969403;28;19964;-65
2023/02/15 14:41:00;;;;;;;;;;;;;;;15.82;36.37;99203.31;4952872;29;19918;-65
2023/02/15 14:43:25;;;;;;;;;;;;;;;15.80;37.05;99198.16;4946669;29;19969;-66
2023/02/15 14:46:09;;;;;;;;;;;;;;;15.73;37.18;99194.25;4953089;28;19922;-63
2023/02/15 14:48:40;;;;;;;;;;;;;;;15.62;36.65;99199.44;4954372;29;19914;-64
2023/02/15 14:51:05;;;;;;;;;;;;;;;15.50;37.97;99201.22;4953551;29;19929;-66
2023/02/15 14:53:42;;;;;;;;;;;;;;;15.59;38.27;99189.97;4953173;29;19914;-66
2023/02/15 14:56:10;;;;;;;;;;;;;;;15.49;37.30;99193.41;4944869;29;19923;-66
2023/02/15 14:58:38;;;;;;;;;;;;;;;15.48;37.05;99184.59;4954347;29;19915;-63
2023/02/15 15:01:05;;;;;;;;;;;;;;;15.43;38.03;99184.94;4952865;29;20026;-65
2023/02/15 15:03:30;;;;;;;;;;;;;;;15.35;37.46;99187.31;4954261;28;19964;-65
2023/02/15 15:05:55;;;;;;;;;;;;;;;15.36;38.75;99188.16;4950556;29;19962;-65
2023/02/15 15:08:22;;;;;;;;;;;;;;;15.22;38.59;99183.88;4936769;29;20012;-65
2023/02/15 15:10:48;;;;;;;;;;;;;;;15.11;37.83;99191.72;4952966;29;19947;-64
2023/02/15 15:13:31;;;;;;;;;;;;;;;15.03;38.93;99186.97;4954349;29;19923;-66
2023/02/15 15:15:56;;;;;;;;;;;;;;;14.88;39.69;99194.19;4951751;29;19985;-64
2023/02/15 15:18:40;;;;;;;;;;;;;;;14.80;38.58;99191.25;4948047;29;20346;-64
2023/02/15 15:21:06;;;;;;;;;;;;;;;14.67;39.88;99179.88;4953468;29;20027;-63
2023/02/15 15:23:39;;;;;;;;;;;;;;;14.63;39.84;99175.75;4954073;28;19942;-64
2023/02/15 15:26:23;;;;;;;;;;;;;;;14.56;40.71;99177.97;4951618;29;19922;-66
2023/02/15 15:28:48;;;;;;;;;;;;;;;14.31;40.37;99178.75;4952924;29;20001;-65
2023/02/15 15:31:32;;;;;;;;;;;;;;;14.14;40.93;99174.66;4953845;29;19961;-65
2023/02/15 15:34:08;;;;;;;;;;;;;;;14.04;40.70;99178.00;4954354;28;20294;-63
2023/02/15 15:36:52;;;;;;;;;;;;;;;13.86;40.72;99174.81;4948911;29;19973;-64
2023/02/15 15:39:26;;;;;;;;;;;;;;;13.69;41.34;99176.75;4947522;29;19968;-65
2023/02/15 15:41:51;;;;;;;;;;;;;;;13.04;41.28;99177.44;4953372;29;19918;-63
2023/02/15 15:44:20;;;;;;;;;;;;;;;12.76;42.15;99180.94;4953770;29;19988;-64
2023/02/15 15:47:03;;;;;;;;;;;;;;;12.48;42.63;99176.53;4952269;29;20005;-64
2023/02/15 15:49:30;;;;;;;;;;;;;;;12.22;43.03;99180.75;4949977;29;19918;-64
2023/02/15 15:51:55;;;;;;;;;;;;;;;12.13;43.72;99175.19;4949412;29;19992;-64
2023/02/15 15:54:21;;;;;;;;;;;;;;;11.86;43.77;99173.22;4952548;29;20386;-63
2023/02/15 15:56:48;;;;;;;;;;;;;;;11.64;44.52;99174.44;4951831;29;20413;-64
2023/02/15 15:59:18;;;;;;;;;;;;;;;11.39;45.30;99175.00;4949390;29;20006;-65
2023/02/15 16:01:43;;;;;;;;;;;;;;;11.22;45.78;99176.88;4952733;29;20342;-64
2023/02/15 16:04:12;;;;;;;;;;;;;;;10.97;46.25;99186.09;4953894;28;20366;-64
2023/02/15 16:06:38;;;;;;;;;;;;;;;10.62;46.78;99182.75;4947337;28;19922;-65
2023/02/15 16:09:10;;;;;;;;;;;;;;;10.32;47.47;99193.91;4945463;29;19922;-64
2023/02/15 16:11:39;;;;;;;;;;;;;;;10.04;48.47;99191.00;4951999;29;19915;-65
2023/02/15 16:14:07;;;;;;;;;;;;;;;9.74;48.88;99192.47;4950960;29;20365;-64
2023/02/15 16:16:33;;;;;;;;;;;;;;;9.46;49.59;99184.22;4949560;29;19923;-65
2023/02/15 16:18:59;;;;;;;;;;;;;;;9.28;50.79;99183.34;4944050;29;19954;-64
2023/02/15 16:21:28;;;;;;;;;;;;;;;9.02;51.26;99187.22;4951370;29;19946;-64
2023/02/15 16:23:53;;;;;;;;;;;;;;;8.78;51.92;99187.44;4948127;29;19926;-64
2023/02/15 16:26:37;;;;;;;;;;;;;;;8.52;52.22;99185.13;4951127;29;19922;-64
2023/02/15 16:29:12;;;;;;;;;;;;;;;8.22;52.91;99195.13;4951460;29;19923;-63
2023/02/15 16:31:38;;;;;;;;;;;;;;;7.97;53.83;99192.72;4953306;28;20390;-64
2023/02/15 16:34:07;;;;;;;;;;;;;;;7.79;54.84;99192.56;4952195;29;19925;-64
2023/02/15 16:36:32;;;;;;;;;;;;;;;7.64;54.68;99201.06;4950237;29;19922;-65
2023/02/15 16:38:57;;;;;;;;;;;;;;;7.42;55.11;99211.50;4955071;29;20356;-62
2023/02/15 16:41:22;;;;;;;;;;;;;;;7.21;56.11;99205.34;4956829;29;19958;-64
2023/02/15 16:43:48;;;;;;;;;;;;;;;7.01;56.54;99216.56;4946745;29;20302;-65
2023/02/15 16:46:15;;;;;;;;;;;;;;;6.80;57.32;99213.00;4951499;29;19953;-64
2023/02/15 16:48:42;;;;;;;;;;;;;;;6.62;57.68;99217.13;4949146;29;19951;-64
2023/02/15 16:51:08;;;;;;;;;;;;;;;6.45;58.43;99216.06;4953616;29;19919;-64
2023/02/15 16:53:33;;;;;;;;;;;;;;;6.39;58.85;99212.75;4952362;29;19925;-64
2023/02/15 16:55:59;;;;;;;;;;;;;;;6.29;59.04;99203.53;4946477;29;20088;-65
2023/02/15 16:58:34;;;;;;;;;;;;;;;6.12;59.54;99208.50;4951655;29;20005;-64
2023/02/15 17:01:00;;;;;;;;;;;;;;;5.98;60.06;99210.72;4954960;29;20647;-64
2023/02/15 17:03:26;;;;;;;;;;;;;;;5.88;60.48;99224.03;4954264;29;20010;-65
2023/02/15 17:05:52;;;;;;;;;;;;;;;5.79;61.00;99223.50;4945824;29;19918;-64
2023/02/15 17:08:24;;;;;;;;;;;;;;;5.64;61.16;99222.22;4948570;29;20017;-64
2023/02/15 17:10:58;;;;;;;;;;;;;;;5.48;61.52;99221.88;4954025;29;19918;-64
2023/02/15 17:13:24;;;;;;;;;;;;;;;5.39;62.31;99228.19;4944205;29;20225;-65
2023/02/15 17:15:59;;;;;;;;;;;;;;;5.29;62.19;99225.94;4940383;29;19923;-65
2023/02/15 17:18:25;;;;;;;;;;;;;;;5.19;63.36;99225.38;4952760;28;19915;-66
2023/02/15 17:20:50;;;;;;;;;;;;;;;5.10;62.96;99233.47;4954098;29;20219;-66
2023/02/15 17:23:23;;;;;;;;;;;;;;;5.02;63.75;99233.66;4943229;29;19926;-66
2023/02/15 17:25:49;;;;;;;;;;;;;;;4.92;63.62;99233.13;4951531;28;20009;-66
2023/02/15 17:28:17;;;;;;;;;;;;;;;4.86;64.08;99237.63;4953578;29;19973;-64
2023/02/15 17:30:45;;;;;;;;;;;;;;;4.77;64.35;99238.75;4947712;29;19919;-64
2023/02/15 17:33:18;;;;;;;;;;;;;;;4.69;64.80;99238.97;4954745;29;20013;-64
2023/02/15 17:35:44;;;;;;;;;;;;;;;4.53;64.78;99238.53;4951193;29;19919;-64
2023/02/15 17:38:18;;;;;;;;;;;;;;;4.46;64.99;99241.34;4953773;29;19918;-64
2023/02/15 17:40:44;;;;;;;;;;;;;;;4.36;65.32;99237.28;4951159;29;19921;-64
2023/02/15 17:43:09;;;;;;;;;;;;;;;4.27;65.52;99239.25;4957472;28;19918;-64
2023/02/15 17:45:39;;;;;;;;;;;;;;;4.16;66.36;99240.41;4953912;28;19997;-64
2023/02/15 17:48:05;;;;;;;;;;;;;;;4.04;66.53;99247.63;4950592;29;20371;-64
2023/02/15 17:50:31;;;;;;;;;;;;;;;3.97;67.46;99250.44;4952628;29;19926;-63
2023/02/15 17:52:56;;;;;;;;;;;;;;;3.87;67.27;99248.94;4952894;29;19923;-64
2023/02/15 17:55:41;;;;;;;;;;;;;;;3.81;67.36;99255.13;4955403;29;19926;-64
2023/02/15 17:58:10;;;;;;;;;;;;;;;3.71;67.46;99249.31;4953482;29;19968;-64
2023/02/15 18:11:38;;;;;;;;;;;;;;;3.40;69.43;99248.34;4953565;28;20017;-65
2023/02/15 18:14:07;;;;;;;;;;;;;;;3.33;68.95;99243.28;4946743;28;20122;-64
2023/02/15 18:16:33;;;;;;;;;;;;;;;3.29;69.08;99253.75;4950474;29;19923;-64
2023/02/15 18:18:59;;;;;;;;;;;;;;;3.32;69.67;99241.59;4949948;29;19918;-64
2023/02/15 18:21:24;;;;;;;;;;;;;;;3.36;69.77;99239.78;4954221;28;19914;-65
2023/02/15 18:23:49;;;;;;;;;;;;;;;3.33;70.16;99238.09;4952186;29;19919;-64
2023/02/15 18:26:18;;;;;;;;;;;;;;;3.32;69.65;99238.13;4958743;28;19986;-65
2023/02/15 18:28:43;;;;;;;;;;;;;;;3.26;70.12;99241.72;4944387;28;19977;-64
2023/02/15 18:31:09;;;;;;;;;;;;;;;3.27;71.03;99247.78;4949940;29;20426;-64
2023/02/15 18:33:35;;;;;;;;;;;;;;;3.20;70.88;99251.38;4949231;29;20451;-64
2023/02/15 18:36:01;;;;;;;;;;;;;;;3.22;70.81;99252.19;4952839;29;19933;-63
2023/02/15 18:38:26;;;;;;;;;;;;;;;3.23;71.51;99251.31;4951439;29;19985;-66
2023/02/15 18:40:51;;;;;;;;;;;;;;;3.26;71.77;99252.09;4950105;29;19954;-64
2023/02/15 18:43:16;;;;;;;;;;;;;;;3.24;71.92;99259.06;4953384;29;19954;-64
2023/02/15 18:45:42;;;;;;;;;;;;;;;3.27;71.64;99255.56;4954683;29;19961;-63
2023/02/15 18:48:08;;;;;;;;;;;;;;;3.29;71.59;99256.34;4951141;29;20370;-63
2023/02/15 18:50:34;;;;;;;;;;;;;;;3.31;71.85;99250.25;4953882;29;20381;-65
2023/02/15 18:52:59;;;;;;;;;;;;;;;3.30;72.21;99252.88;4950954;29;19926;-64
2023/02/15 18:55:25;;;;;;;;;;;;;;;3.31;72.63;99250.25;4953968;28;19925;-63
2023/02/15 18:57:50;;;;;;;;;;;;;;;3.28;72.64;99252.91;4944313;28;19922;-63
2023/02/15 19:00:20;;;;;;;;;;;;;;;3.30;72.89;99250.28;4955136;28;20017;-63
2023/02/15 19:02:45;;;;;;;;;;;;;;;3.32;72.64;99253.69;4951919;28;19914;-64
2023/02/15 19:05:11;;;;;;;;;;;;;;;3.30;72.83;99255.47;4947379;29;20437;-64
2023/02/15 19:07:37;;;;;;;;;;;;;;;3.33;72.38;99252.81;4938126;29;19981;-64
2023/02/15 19:10:03;;;;;;;;;;;;;;;3.31;72.66;99257.19;4949562;28;19965;-63
2023/02/15 19:12:28;;;;;;;;;;;;;;;3.29;72.86;99261.53;4948081;28;20009;-63
2023/02/15 19:14:55;;;;;;;;;;;;;;;3.27;72.23;99260.75;4950564;29;20010;-63
2023/02/15 19:17:20;;;;;;;;;;;;;;;3.25;72.82;99250.38;4951283;29;19929;-63
2023/02/15 19:19:46;;;;;;;;;;;;;;;3.30;73.21;99252.88;4951341;28;19922;-63
2023/02/15 19:22:14;;;;;;;;;;;;;;;3.29;72.88;99245.97;4949009;29;19973;-63
2023/02/15 19:24:40;;;;;;;;;;;;;;;3.29;72.61;99245.97;4958191;28;19915;-63
2023/02/15 19:27:06;;;;;;;;;;;;;;;3.26;72.50;99246.91;4953592;29;19941;-63
2023/02/15 19:29:31;;;;;;;;;;;;;;;3.24;73.13;99242.66;4952861;29;20367;-64
2023/02/15 19:31:56;;;;;;;;;;;;;;;3.24;72.92;99237.47;4946088;29;19972;-64
2023/02/15 19:34:22;;;;;;;;;;;;;;;3.22;73.91;99231.47;4949779;29;19918;-64
2023/02/15 19:36:47;;;;;;;;;;;;;;;3.20;73.27;99243.59;4951895;29;20433;-64
2023/02/15 19:39:18;;;;;;;;;;;;;;;3.20;73.33;99241.00;4949716;29;19919;-64
2023/02/15 19:41:44;;;;;;;;;;;;;;;3.22;73.50;99240.09;4945208;29;19926;-64
2023/02/15 19:44:09;;;;;;;;;;;;;;;3.22;73.58;99236.66;4946382;28;19923;-65
2023/02/15 19:46:35;;;;;;;;;;;;;;;3.21;73.58;99227.16;4948412;29;19918;-64
2023/02/15 19:49:01;;;;;;;;;;;;;;;3.20;72.97;99233.22;4944071;29;20353;-64
2023/02/15 19:51:27;;;;;;;;;;;;;;;3.20;73.54;99228.03;4951538;29;20461;-65
2023/02/15 19:53:52;;;;;;;;;;;;;;;3.20;73.29;99233.22;4947163;29;19926;-64
2023/02/15 19:56:20;;;;;;;;;;;;;;;3.16;73.46;99234.19;4950234;29;19922;-64
2023/02/15 19:58:45;;;;;;;;;;;;;;;3.15;73.33;99235.91;4957694;28;20085;-64
2023/02/15 20:01:12;;;;;;;;;;;;;;;3.15;73.73;99242.84;4947112;28;20283;-64
2023/02/15 20:03:37;;;;;;;;;;;;;;;3.06;73.37;99237.00;4946311;28;20388;-64
2023/02/15 20:06:03;;;;;;;;;;;;;;;2.98;73.15;99244.06;4950865;28;19922;-64
2023/02/15 20:08:28;;;;;;;;;;;;;;;2.94;73.79;99245.03;4955994;29;19926;-64
2023/02/15 20:10:53;;;;;;;;;;;;;;;2.95;73.84;99241.53;4956257;29;19969;-64
2023/02/15 20:13:18;;;;;;;;;;;;;;;2.89;73.62;99246.88;4951791;29;19991;-64
2023/02/15 20:15:44;;;;;;;;;;;;;;;2.89;73.44;99246.88;4943273;28;19922;-64
2023/02/15 20:18:09;;;;;;;;;;;;;;;2.88;73.45;99239.97;4939038;28;19978;-64
2023/02/15 20:20:41;;;;;;;;;;;;;;;2.84;74.26;99241.75;4948420;29;19965;-64
2023/02/15 20:23:17;;;;;;;;;;;;;;;2.87;73.86;99242.59;4953429;29;19952;-65
2023/02/15 20:25:42;;;;;;;;;;;;;;;2.88;73.79;99239.09;4947535;29;20025;-64
2023/02/15 20:28:10;;;;;;;;;;;;;;;2.88;73.29;99239.09;4955818;29;20374;-64
2023/02/15 20:30:35;;;;;;;;;;;;;;;2.87;73.88;99240.84;4948298;29;20085;-64
2023/02/15 20:33:00;;;;;;;;;;;;;;;2.89;74.45;99233.91;4952135;28;19915;-64
2023/02/15 20:35:27;;;;;;;;;;;;;;;2.87;74.09;99233.06;4946861;29;19946;-64
2023/02/15 20:37:53;;;;;;;;;;;;;;;2.86;73.80;99241.75;4934724;29;19929;-64
2023/02/15 20:40:19;;;;;;;;;;;;;;;2.82;74.08;99240.06;4954676;29;19914;-64
2023/02/15 20:42:44;;;;;;;;;;;;;;;2.83;74.59;99232.28;4953195;29;19933;-64
2023/02/15 20:45:19;;;;;;;;;;;;;;;2.81;74.39;99225.44;4948334;28;20001;-64
2023/02/15 20:47:47;;;;;;;;;;;;;;;2.84;74.15;99233.13;4950822;29;19993;-64
2023/02/15 20:50:13;;;;;;;;;;;;;;;2.84;73.88;99227.97;4956589;28;19936;-64
2023/02/15 20:52:38;;;;;;;;;;;;;;;2.81;74.22;99230.59;4955543;28;19926;-64
2023/02/15 20:55:10;;;;;;;;;;;;;;;2.83;74.45;99223.66;4947470;28;19927;-64
2023/02/15 20:57:35;;;;;;;;;;;;;;;2.78;73.44;99221.16;4952800;29;20325;-64
2023/02/15 21:00:01;;;;;;;;;;;;;;;2.80;74.01;99221.13;4955673;28;20020;-64
2023/02/15 21:02:26;;;;;;;;;;;;;;;2.76;73.20;99225.53;4952908;28;20009;-64
2023/02/15 21:04:51;;;;;;;;;;;;;;;2.75;73.64;99212.59;4951466;29;20222;-64
2023/02/15 21:07:17;;;;;;;;;;;;;;;3.29;87.86;99209.69;4945141;29;20291;-62
2023/02/15 21:09:43;;;;;;;;;;;;;;;8.70;74.60;99197.38;4948611;29;20009;-62
2023/02/15 21:12:11;;;;;;;;;;;;;;;7.94;57.58;99190.22;4950972;29;19918;-64
2023/02/15 21:14:36;;;;;;;;;;;;;;;6.56;58.56;99196.50;4951069;29;19919;-64
2023/02/15 21:17:01;;;;;;;;;;;;;;;5.73;62.10;99201.09;4949621;28;20409;-64
